Time;durP1;ratioP1;P1;durP2;ratioP2;P2;SDS_P1;SDS_P2;PMS_P1;PMS_P2;Temp;Humidity;BMP_temperature;BMP_pressure;BME280_temperature;BME280_humidity;BME280_pressure;Samples;Min_cycle;Max_cycle;Signal;HPM_P1;HPM_P2
2021/09/24 01:08:16;;;;;;;1.30;0.90;;;;;;;10.22;79.17;100973.84;4958830;22;31042905;-78
2021/09/24 01:19:34;;;;;;;2.75;1.15;;;;;;;10.15;79.63;100962.22;6075567;23;20082;-78
2021/09/24 01:22:52;;;;;;;2.30;1.00;;;;;;;10.15;79.70;100951.09;6045559;23;20039;-78
2021/09/24 01:26:56;;;;;;;;;;;;;;;;;;;;;
2021/09/24 01:30:17;;;;;;;;;;;;;;;;;;;;;
2021/09/24 01:38:02;;;;;;;;;;;;;;;;;;;;;
2021/09/24 05:13:54;;;;;;;2.08;1.30;;;;;;;8.32;80.74;100863.84;6262736;22;20501;-73
2021/09/24 05:16:19;;;;;;;1.90;1.60;;;;;;;8.25;80.94;100856.63;6198648;23;20008;-73
2021/09/24 05:18:45;;;;;;;1.50;1.40;;;;;;;8.25;81.23;100850.25;6223713;23;20332;-73
2021/09/24 05:21:11;;;;;;;1.48;1.33;;;;;;;8.26;81.31;100860.22;6250489;23;20007;-74
2021/09/24 05:23:36;;;;;;;1.80;1.33;;;;;;;8.26;81.25;100861.03;6250534;23;20005;-74
2021/09/24 05:26:02;;;;;;;2.70;1.95;;;;;;;8.27;81.18;100857.19;6250560;23;20011;-74
2021/09/24 05:28:27;;;;;;;1.70;1.60;;;;;;;8.25;81.10;100853.84;6250546;23;20015;-74
2021/09/24 05:30:53;;;;;;;2.05;1.85;;;;;;;8.26;81.40;100863.81;6250308;23;20004;-74
2021/09/24 05:33:19;;;;;;;2.42;1.95;;;;;;;8.26;81.36;100855.50;6250508;23;20077;-74
2021/09/24 05:35:45;;;;;;;1.85;1.63;;;;;;;8.25;81.51;100859.38;6197546;23;20012;-73
2021/09/24 05:38:10;;;;;;;2.78;1.95;;;;;;;8.27;81.63;100859.97;6250506;23;20089;-74
2021/09/24 05:40:36;;;;;;;4.40;2.00;;;;;;;8.27;81.58;100861.88;6237612;23;20008;-74
2021/09/24 05:43:01;;;;;;;3.08;1.75;;;;;;;8.29;81.84;100871.56;6223696;23;20066;-74
2021/09/24 05:45:27;;;;;;;2.30;1.90;;;;;;;8.34;81.86;100867.19;6223308;23;20008;-74
2021/09/24 05:47:52;;;;;;;2.20;2.00;;;;;;;8.34;82.24;100861.63;6250489;23;20012;-74
2021/09/24 05:50:18;;;;;;;2.33;1.95;;;;;;;8.37;82.36;100863.88;6223149;23;20015;-74
2021/09/24 05:52:45;;;;;;;2.17;1.85;;;;;;;8.39;82.37;100858.94;6223117;23;20017;-74
2021/09/24 05:55:11;;;;;;;2.17;1.85;;;;;;;8.43;82.49;100858.09;6198367;23;20015;-74
2021/09/24 05:57:37;;;;;;;1.90;1.67;;;;;;;8.50;82.07;100849.56;6223478;23;20008;-74
2021/09/24 06:00:04;;;;;;;2.60;1.85;;;;;;;8.53;82.50;100849.00;6223822;23;20014;-74
2021/09/24 06:02:30;;;;;;;2.10;1.90;;;;;;;8.55;82.56;100855.09;6223476;23;20005;-73
2021/09/24 06:04:56;;;;;;;1.98;1.55;;;;;;;8.57;82.71;100861.19;6249796;23;20008;-73
2021/09/24 06:07:21;;;;;;;2.28;2.03;;;;;;;8.59;82.63;100863.69;6250035;23;20011;-73
2021/09/24 06:09:47;;;;;;;2.85;2.10;;;;;;;8.64;83.42;100867.31;6250095;23;20008;-73
2021/09/24 06:12:12;;;;;;;2.47;2.00;;;;;;;8.64;82.63;100866.50;6223261;23;20059;-73
2021/09/24 06:14:38;;;;;;;2.60;2.20;;;;;;;8.70;83.07;100866.22;6237251;22;20022;-73
2021/09/24 06:17:03;;;;;;;4.00;2.10;;;;;;;8.73;83.40;100860.13;6228534;22;20008;-73
2021/09/24 06:19:29;;;;;;;3.97;2.08;;;;;;;8.78;83.09;100856.56;6311363;22;20431;-70
2021/09/24 06:21:54;;;;;;;2.45;2.13;;;;;;;8.84;83.13;100851.84;6311489;22;20007;-70
2021/09/24 06:24:20;;;;;;;2.22;2.03;;;;;;;8.91;83.49;100855.16;6284457;22;20014;-70
2021/09/24 06:26:45;;;;;;;2.88;2.30;;;;;;;8.99;83.33;100862.13;6258314;22;20013;-70
2021/09/24 06:29:11;;;;;;;2.40;1.98;;;;;;;9.00;83.59;100863.78;6258578;22;20003;-71
2021/09/24 06:31:36;;;;;;;2.60;1.80;;;;;;;9.06;83.78;100860.75;6284096;22;20007;-70
2021/09/24 06:34:01;;;;;;;2.50;1.70;;;;;;;9.11;83.59;100857.13;6284472;22;20003;-70
2021/09/24 06:36:28;;;;;;;2.08;1.88;;;;;;;9.15;83.11;100856.31;6232735;22;20011;-70
2021/09/24 06:38:53;;;;;;;3.83;1.77;;;;;;;9.17;83.76;100856.06;6258563;22;20003;-71
2021/09/24 06:41:18;;;;;;;2.90;1.90;;;;;;;9.20;83.56;100865.75;6258547;22;20297;-71
2021/09/24 06:43:44;;;;;;;3.70;2.17;;;;;;;9.23;83.58;100862.44;6258625;22;20109;-71
2021/09/24 06:46:10;;;;;;;3.00;2.00;;;;;;;9.29;83.63;100864.91;6233751;22;20018;-71
2021/09/24 06:48:35;;;;;;;2.70;1.90;;;;;;;9.33;83.01;100867.94;6284169;22;20007;-71
2021/09/24 06:51:02;;;;;;;4.03;2.08;;;;;;;9.39;83.87;100869.63;6283674;22;20007;-71
2021/09/24 06:53:28;;;;;;;2.58;1.70;;;;;;;9.43;83.42;100867.97;6283792;22;20025;-70
2021/09/24 06:55:56;;;;;;;3.50;2.10;;;;;;;9.51;83.23;100870.19;6258886;22;20019;-70
2021/09/24 06:58:22;;;;;;;2.05;1.80;;;;;;;9.54;83.35;100866.84;6284703;22;20489;-71
2021/09/24 07:00:47;;;;;;;2.38;2.08;;;;;;;9.61;84.47;100861.88;6258523;22;20014;-70
2021/09/24 07:03:13;;;;;;;2.58;1.92;;;;;;;9.66;84.27;100855.47;6258722;22;20007;-71
2021/09/24 07:05:38;;;;;;;4.00;2.42;;;;;;;9.74;85.28;100856.84;6232809;22;20016;-71
2021/09/24 07:08:04;;;;;;;6.50;2.97;;;;;;;9.77;86.38;100859.88;6284350;22;20010;-71
2021/09/24 07:10:29;;;;;;;3.55;2.85;;;;;;;9.83;86.23;100861.56;6257997;22;19999;-70
2021/09/24 07:12:55;;;;;;;5.07;2.78;;;;;;;9.91;85.77;100865.66;6284140;22;20015;-70
2021/09/24 07:15:20;;;;;;;5.05;3.35;;;;;;;10.00;87.08;100871.47;6257683;22;20064;-71
2021/09/24 07:17:46;;;;;;;4.03;3.22;;;;;;;10.07;86.98;100870.06;6284103;22;20030;-70
2021/09/24 07:20:11;;;;;;;3.58;2.80;;;;;;;10.17;86.21;100871.16;6257833;22;20014;-70
2021/09/24 07:22:37;;;;;;;4.70;3.10;;;;;;;10.26;88.08;100864.75;6257803;22;20007;-70
2021/09/24 07:25:03;;;;;;;4.47;3.30;;;;;;;10.35;87.73;100856.69;6257847;22;20494;-69
2021/09/24 07:27:28;;;;;;;4.10;2.75;;;;;;;10.46;86.46;100851.91;6232537;22;20010;-70
2021/09/24 07:29:54;;;;;;;3.45;2.60;;;;;;;10.58;86.58;100848.81;6283980;22;20004;-70
2021/09/24 07:32:19;;;;;;;2.90;2.58;;;;;;;10.68;87.00;100849.59;6232654;22;20011;-70
2021/09/24 07:34:45;;;;;;;2.90;2.60;;;;;;;10.80;87.09;100849.22;6232449;22;20022;-70
2021/09/24 07:37:11;;;;;;;2.80;2.35;;;;;;;10.91;88.74;100845.25;6257922;22;20018;-70
2021/09/24 07:39:37;;;;;;;4.07;2.75;;;;;;;11.04;87.69;100848.53;6311136;22;20013;-70
2021/09/24 07:42:03;;;;;;;4.65;2.85;;;;;;;11.11;89.83;100849.00;6283664;22;20003;-72
2021/09/24 07:44:29;;;;;;;2.88;2.58;;;;;;;11.19;88.85;100842.84;6283290;22;20003;-73
2021/09/24 07:46:54;;;;;;;5.47;2.75;;;;;;;11.27;88.50;100833.06;6232613;22;20090;-72
2021/09/24 07:49:20;;;;;;;2.83;2.53;;;;;;;11.33;87.77;100846.59;6258099;22;20416;-72
2021/09/24 07:51:45;;;;;;;2.25;2.00;;;;;;;11.43;86.25;100842.09;6283618;22;20327;-72
2021/09/24 07:54:11;;;;;;;2.97;2.08;;;;;;;11.52;86.51;100845.91;6310852;22;20801;-72
2021/09/24 07:56:36;;;;;;;3.35;2.20;;;;;;;11.58;86.55;100855.84;6283313;22;20007;-73
2021/09/24 07:59:02;;;;;;;3.88;1.90;;;;;;;11.65;86.41;100845.22;6310902;22;20003;-72
2021/09/24 08:01:28;;;;;;;2.33;2.13;;;;;;;11.73;86.13;100840.97;6310968;22;20007;-73
2021/09/24 08:03:53;;;;;;;3.72;2.20;;;;;;;11.79;86.46;100840.63;6283721;22;20007;-72
2021/09/24 08:06:19;;;;;;;2.40;1.90;;;;;;;11.85;85.67;100839.47;6310430;22;20011;-72
2021/09/24 08:08:46;;;;;;;1.95;1.75;;;;;;;11.94;85.60;100841.63;6310744;22;20011;-73
2021/09/24 08:11:12;;;;;;;2.58;1.60;;;;;;;12.01;84.68;100848.50;6310626;22;20003;-72
2021/09/24 08:13:37;;;;;;;3.03;1.90;;;;;;;12.11;85.40;100847.53;6310596;22;20058;-72
2021/09/24 08:16:03;;;;;;;2.63;2.05;;;;;;;12.18;84.79;100853.59;6310637;22;20003;-73
2021/09/24 08:18:28;;;;;;;2.47;1.50;;;;;;;12.27;85.65;100845.41;6310486;22;20014;-72
2021/09/24 08:20:54;;;;;;;2.95;2.47;;;;;;;12.37;85.74;100852.78;6257259;22;20030;-72
2021/09/24 08:23:20;;;;;;;2.45;1.95;;;;;;;12.46;84.21;100859.38;6283613;22;20007;-72
2021/09/24 08:25:46;;;;;;;1.50;1.10;;;;;;;12.55;83.04;100860.38;6233024;22;20003;-72
2021/09/24 08:28:12;;;;;;;3.20;2.55;;;;;;;12.67;86.19;100866.31;6257881;22;20011;-72
2021/09/24 08:30:37;;;;;;;3.10;1.90;;;;;;;12.74;87.47;100850.06;6310979;22;19999;-71
2021/09/24 08:33:03;;;;;;;3.10;2.80;;;;;;;12.82;87.77;100854.16;6284000;22;20056;-71
2021/09/24 08:35:29;;;;;;;4.10;3.08;;;;;;;12.92;89.61;100855.94;6285415;22;20098;-71
2021/09/24 08:37:55;;;;;;;3.65;3.13;;;;;;;13.00;89.82;100851.66;6285611;22;20043;-71
2021/09/24 08:40:22;;;;;;;3.65;3.33;;;;;;;13.08;88.96;100854.59;6312379;22;20011;-71
2021/09/24 08:42:48;;;;;;;4.00;2.40;;;;;;;13.18;87.83;100850.81;6285200;22;20007;-71
2021/09/24 08:45:20;;;;;;;3.80;2.90;;;;;;;13.28;88.36;100853.47;6312335;22;20243;-72
2021/09/24 08:47:46;;;;;;;4.68;3.08;;;;;;;13.38;90.45;100847.72;6287008;22;20007;-72
2021/09/24 08:50:11;;;;;;;2.80;2.30;;;;;;;13.49;87.96;100848.38;6259762;22;20003;-71
2021/09/24 08:52:37;;;;;;;4.40;3.45;;;;;;;13.60;89.83;100857.41;6285136;22;20007;-71
2021/09/24 08:55:07;;;;;;;3.35;2.50;;;;;;;13.72;88.91;100856.91;6312338;22;20019;-72
2021/09/24 08:57:33;;;;;;;4.35;3.25;;;;;;;13.83;88.73;100856.41;6285034;22;20030;-72
2021/09/24 08:59:59;;;;;;;2.92;2.13;;;;;;;13.95;86.05;100867.06;6312659;22;20065;-72
2021/09/24 09:02:24;;;;;;;4.80;3.55;;;;;;;14.06;89.55;100865.75;6285166;22;20007;-72
2021/09/24 09:04:50;;;;;;;4.07;3.30;;;;;;;14.16;89.99;100852.75;6285147;22;20324;-72
2021/09/24 09:07:17;;;;;;;4.43;3.67;;;;;;;14.27;90.99;100859.78;6285045;22;20026;-72
2021/09/24 09:09:45;;;;;;;6.13;3.92;;;;;;;14.39;91.73;100851.69;6259750;22;20007;-71
2021/09/24 09:12:11;;;;;;;4.82;4.30;;;;;;;14.49;91.84;100847.88;6312503;22;20003;-71
2021/09/24 09:14:37;;;;;;;4.38;3.60;;;;;;;14.62;91.58;100840.63;6311361;22;20019;-71
2021/09/24 09:17:33;;;;;;;4.22;3.53;;;;;;;14.75;91.49;100845.34;6285201;22;20087;-71
2021/09/24 09:20:18;;;;;;;5.75;4.55;;;;;;;14.90;92.46;100846.97;6311973;22;20003;-71
2021/09/24 09:22:46;;;;;;;5.70;4.10;;;;;;;15.06;92.41;100847.44;6259137;22;20013;-71
2021/09/24 09:25:25;;;;;;;4.97;4.35;;;;;;;15.17;92.16;100843.25;6284932;22;20007;-71
2021/09/24 09:27:52;;;;;;;4.43;4.03;;;;;;;15.34;90.68;100846.19;6285356;22;20007;-71
2021/09/24 09:30:18;;;;;;;4.80;3.67;;;;;;;15.51;90.18;100850.25;6259506;22;20003;-72
2021/09/24 09:33:08;;;;;;;5.78;3.10;;;;;;;15.69;89.86;100846.47;6312213;22;19999;-71
2021/09/24 09:35:41;;;;;;;6.13;3.45;;;;;;;15.79;89.55;100848.16;6311898;22;20014;-71
2021/09/24 09:38:25;;;;;;;3.83;2.70;;;;;;;15.94;88.65;100847.75;6284991;22;20006;-71
2021/09/24 09:41:02;;;;;;;5.80;2.33;;;;;;;16.07;87.06;100855.22;6311970;22;20014;-71
2021/09/24 09:43:39;;;;;;;3.92;2.60;;;;;;;16.20;86.82;100849.81;6311742;22;20003;-72
2021/09/24 09:46:13;;;;;;;3.17;2.40;;;;;;;16.37;86.93;100849.88;6312118;22;20027;-71
2021/09/24 09:48:38;;;;;;;3.63;2.75;;;;;;;16.57;87.18;100851.25;6235239;22;20328;-72
2021/09/24 09:51:04;;;;;;;5.65;4.03;;;;;;;16.72;86.94;100858.41;6311575;22;20003;-72
2021/09/24 09:53:30;;;;;;;4.80;4.18;;;;;;;16.82;85.00;100849.69;6311765;22;20011;-72
2021/09/24 09:56:00;;;;;;;6.65;3.83;;;;;;;16.99;84.36;100848.88;6284704;22;20452;-72
2021/09/24 09:58:27;;;;;;;7.22;4.07;;;;;;;17.12;83.22;100847.88;6312131;22;20018;-72
2021/09/24 10:00:57;;;;;;;7.30;4.50;;;;;;;17.25;81.33;100845.25;6284625;22;20007;-72
2021/09/24 10:03:34;;;;;;;5.28;4.18;;;;;;;17.37;80.88;100837.81;6311738;22;20003;-72
2021/09/24 10:06:03;;;;;;;6.75;4.10;;;;;;;17.58;80.07;100840.75;6284235;22;20029;-72
2021/09/24 10:08:33;;;;;;;7.22;3.17;;;;;;;17.80;80.20;100842.56;6285152;22;20006;-71
2021/09/24 10:10:58;;;;;;;4.97;3.17;;;;;;;18.03;81.28;100834.69;6312212;22;20011;-72
2021/09/24 10:13:25;;;;;;;4.50;3.55;;;;;;;18.26;82.28;100845.69;6311659;22;20013;-72
2021/09/24 10:15:50;;;;;;;5.60;3.53;;;;;;;18.49;81.67;100849.84;6284378;22;20058;-72
2021/09/24 10:18:16;;;;;;;3.97;2.95;;;;;;;18.68;80.24;100837.34;6311574;22;20009;-72
2021/09/24 10:20:41;;;;;;;5.43;3.75;;;;;;;18.85;77.99;100840.06;6284526;22;20007;-71
2021/09/24 10:23:07;;;;;;;8.50;3.20;;;;;;;19.01;77.17;100842.28;6284418;22;20003;-72
2021/09/24 10:25:34;;;;;;;5.18;3.08;;;;;;;19.13;77.05;100843.13;6258598;22;20078;-71
2021/09/24 10:28:03;;;;;;;6.47;2.92;;;;;;;19.31;78.14;100835.38;6284353;22;20007;-72
2021/09/24 10:30:29;;;;;;;5.03;2.88;;;;;;;19.47;76.71;100827.09;6284328;22;20326;-72
2021/09/24 10:32:55;;;;;;;5.30;2.97;;;;;;;19.60;74.42;100830.78;6233476;22;20010;-72
2021/09/24 10:35:20;;;;;;;4.80;3.00;;;;;;;19.72;73.28;100830.84;6284370;22;20012;-72
2021/09/24 10:37:47;;;;;;;3.38;2.60;;;;;;;19.83;72.27;100822.75;6284319;22;20007;-72
2021/09/24 10:40:22;;;;;;;3.80;2.40;;;;;;;19.98;71.48;100821.28;6284322;22;20013;-72
2021/09/24 10:42:51;;;;;;;6.20;3.30;;;;;;;20.03;69.75;100821.88;6311411;22;20011;-72
2021/09/24 10:45:17;;;;;;;3.47;2.35;;;;;;;20.20;71.32;100820.81;6284837;22;20110;-72
2021/09/24 10:48:23;;;;;;;5.25;2.85;;;;;;;20.39;72.99;100822.22;6311423;22;20041;-72
2021/09/24 10:50:52;;;;;;;2.88;2.30;;;;;;;20.62;72.05;100819.78;6310906;22;20003;-72
2021/09/24 10:53:19;;;;;;;5.30;2.65;;;;;;;20.82;70.82;100820.81;6311550;22;20504;-72
2021/09/24 10:56:11;;;;;;;3.75;2.42;;;;;;;20.84;68.73;100821.25;6257526;22;20014;-72
2021/09/24 10:58:40;;;;;;;7.18;2.75;;;;;;;20.84;67.44;100810.81;6252236;22;20052;-72
2021/09/24 11:01:11;;;;;;;6.05;2.38;;;;;;;20.86;66.71;100810.44;6283235;22;20015;-72
2021/09/24 11:03:56;;;;;;;4.53;2.53;;;;;;;20.92;65.89;100817.47;6311486;22;20010;-72
2021/09/24 11:06:35;;;;;;;3.78;2.15;;;;;;;20.96;66.27;100807.94;6283598;22;20030;-72
2021/09/24 11:09:01;;;;;;;3.08;2.10;;;;;;;20.98;66.78;100804.78;6310855;22;20003;-72
2021/09/24 11:11:34;;;;;;;6.35;2.30;;;;;;;21.04;66.13;100805.34;6311274;22;20003;-72
2021/09/24 11:14:02;;;;;;;3.85;2.40;;;;;;;21.07;65.81;100802.63;6283668;22;20328;-72
2021/09/24 11:16:43;;;;;;;5.95;2.40;;;;;;;21.11;66.73;100803.53;6284359;22;20030;-72
2021/09/24 11:19:30;;;;;;;4.13;2.40;;;;;;;21.13;65.96;100795.53;6310660;22;20025;-72
2021/09/24 11:21:59;;;;;;;4.65;3.10;;;;;;;21.06;65.81;100794.50;6310895;22;20331;-72
2021/09/24 11:24:32;;;;;;;5.60;2.90;;;;;;;21.02;65.26;100799.22;6310893;22;20370;-72
2021/09/24 11:26:59;;;;;;;5.05;2.85;;;;;;;21.03;65.53;100792.38;6310927;22;20083;-72
2021/09/24 11:29:35;;;;;;;4.28;2.67;;;;;;;21.12;66.61;100793.06;6284210;22;20003;-72
2021/09/24 11:32:01;;;;;;;5.00;2.13;;;;;;;21.17;67.38;100790.81;6260083;22;19999;-72
2021/09/24 11:34:33;;;;;;;3.65;2.10;;;;;;;21.24;67.66;100789.38;6283190;22;20451;-73
2021/09/24 11:36:59;;;;;;;5.55;2.60;;;;;;;21.29;66.70;100786.28;6257696;22;20035;-73
2021/09/24 11:39:25;;;;;;;3.53;2.00;;;;;;;21.44;66.81;100781.88;6233095;22;20007;-73
2021/09/24 11:42:04;;;;;;;6.45;2.47;;;;;;;21.52;65.95;100773.25;6232162;22;20072;-72
2021/09/24 11:44:30;;;;;;;3.00;1.77;;;;;;;21.69;67.24;100769.25;6258782;22;20007;-73
2021/09/24 11:46:55;;;;;;;4.03;2.42;;;;;;;21.77;64.95;100768.25;6283475;22;20090;-73
2021/09/24 11:49:21;;;;;;;4.22;2.13;;;;;;;21.91;64.07;100767.81;6283726;22;20320;-72
2021/09/24 11:51:59;;;;;;;4.68;3.30;;;;;;;21.97;63.27;100774.81;6283352;22;20004;-72
2021/09/24 11:54:25;;;;;;;4.25;2.10;;;;;;;22.07;64.66;100764.97;6310601;22;20003;-73
2021/09/24 11:56:51;;;;;;;5.53;2.92;;;;;;;21.96;62.88;100775.19;6310522;22;20014;-72
2021/09/24 11:59:16;;;;;;;4.53;3.10;;;;;;;21.91;63.00;100770.63;6283714;22;20046;-72
2021/09/24 12:01:43;;;;;;;5.20;2.63;;;;;;;21.92;63.22;100765.78;6282946;22;20053;-72
2021/09/24 12:04:08;;;;;;;5.25;3.10;;;;;;;21.86;62.93;100759.59;6310489;22;20003;-72
2021/09/24 12:06:35;;;;;;;6.55;3.35;;;;;;;21.83;62.52;100754.66;6283099;22;20029;-72
2021/09/24 12:09:03;;;;;;;7.60;3.10;;;;;;;21.81;62.07;100751.38;6257543;22;20011;-72
2021/09/24 12:11:31;;;;;;;4.10;2.33;;;;;;;21.82;62.88;100750.22;6283378;22;19995;-72
2021/09/24 12:13:58;;;;;;;4.45;2.47;;;;;;;21.84;62.17;100739.34;6258002;22;20023;-73
2021/09/24 12:16:33;;;;;;;4.07;2.40;;;;;;;21.85;62.71;100741.00;6310081;22;20052;-72
2021/09/24 12:18:59;;;;;;;3.53;2.00;;;;;;;21.86;62.70;100743.44;6310622;22;20003;-73
2021/09/24 12:21:46;;;;;;;4.55;2.70;;;;;;;21.80;61.95;100750.56;6310502;22;20030;-72
2021/09/24 12:24:20;;;;;;;4.80;2.88;;;;;;;21.83;61.93;100737.69;6310448;22;20014;-72
2021/09/24 12:26:51;;;;;;;4.43;2.50;;;;;;;21.97;62.05;100743.72;6310487;22;20011;-72
2021/09/24 12:29:23;;;;;;;4.45;2.72;;;;;;;21.93;62.69;100737.16;6283275;22;20038;-72
2021/09/24 12:31:53;;;;;;;3.70;2.93;;;;;;;22.06;61.22;100735.88;6310747;22;20511;-72
2021/09/24 12:34:23;;;;;;;4.97;2.70;;;;;;;22.18;60.97;100728.50;6283053;22;20279;-72
2021/09/24 12:36:49;;;;;;;4.22;2.50;;;;;;;22.27;60.34;100723.47;6310417;22;20086;-72
2021/09/24 12:39:16;;;;;;;6.60;3.17;;;;;;;22.12;60.39;100732.75;6283106;22;20327;-72
2021/09/24 12:41:42;;;;;;;3.90;2.75;;;;;;;22.14;61.12;100736.84;6310327;22;20076;-73
2021/09/24 12:44:07;;;;;;;3.22;2.25;;;;;;;22.25;60.67;100728.66;6257664;22;20016;-72
2021/09/24 12:46:43;;;;;;;5.95;3.08;;;;;;;22.21;60.89;100724.94;6310060;22;20420;-72
2021/09/24 12:49:09;;;;;;;5.60;2.83;;;;;;;22.25;60.20;100720.16;6310337;22;20034;-72
2021/09/24 12:51:34;;;;;;;3.60;2.22;;;;;;;22.30;60.49;100717.06;6282472;22;20412;-72
2021/09/24 12:54:00;;;;;;;4.82;2.15;;;;;;;22.36;59.69;100718.41;6283673;22;20078;-72
2021/09/24 12:56:25;;;;;;;3.10;2.08;;;;;;;22.40;60.88;100708.00;6282958;22;20041;-72
2021/09/24 12:58:55;;;;;;;4.53;2.45;;;;;;;22.43;60.05;100704.44;6310266;22;20061;-72
2021/09/24 13:01:21;;;;;;;3.03;2.22;;;;;;;22.39;59.96;100697.03;6309896;22;20094;-72
2021/09/24 13:03:46;;;;;;;4.28;2.50;;;;;;;22.34;59.49;100688.84;6283462;22;20003;-72
2021/09/24 13:06:12;;;;;;;4.40;2.50;;;;;;;22.37;59.84;100693.75;6309945;22;20048;-72
2021/09/24 13:08:38;;;;;;;3.17;2.28;;;;;;;22.44;59.77;100689.06;6310280;22;20015;-72
2021/09/24 13:11:04;;;;;;;3.55;2.55;;;;;;;22.46;59.80;100683.88;6310076;22;20007;-72
2021/09/24 13:13:30;;;;;;;4.05;1.92;;;;;;;22.51;59.37;100689.25;6310367;22;19999;-72
2021/09/24 13:15:56;;;;;;;5.30;2.78;;;;;;;22.53;60.29;100686.84;6309726;22;20113;-72
2021/09/24 13:18:22;;;;;;;4.95;1.90;;;;;;;22.62;59.60;100674.50;6310249;22;20011;-72
2021/09/24 13:20:49;;;;;;;4.10;1.85;;;;;;;22.67;60.04;100669.34;6312191;22;20057;-72
2021/09/24 13:23:15;;;;;;;2.38;1.67;;;;;;;22.82;61.63;100664.81;6312413;22;20027;-72
2021/09/24 13:25:40;;;;;;;3.03;1.90;;;;;;;22.97;58.79;100665.94;6284722;22;20061;-73
2021/09/24 13:28:06;;;;;;;4.28;2.35;;;;;;;22.90;59.81;100666.59;6284715;22;20060;-72
2021/09/24 13:30:31;;;;;;;3.60;1.95;;;;;;;22.87;59.56;100661.69;6311696;22;20022;-72
2021/09/24 13:32:57;;;;;;;4.82;1.92;;;;;;;22.96;60.39;100665.13;6312375;22;20006;-72
2021/09/24 13:35:22;;;;;;;4.50;2.20;;;;;;;23.13;57.65;100658.16;6284502;22;20010;-72
2021/09/24 13:37:48;;;;;;;5.00;2.22;;;;;;;23.06;58.85;100657.19;6284731;22;20007;-72
2021/09/24 13:40:13;;;;;;;2.40;2.08;;;;;;;22.96;58.42;100645.31;6284453;22;20416;-72
2021/09/24 13:42:39;;;;;;;4.00;2.22;;;;;;;23.01;57.77;100647.00;6312244;22;20007;-72
2021/09/24 13:45:05;;;;;;;4.53;1.92;;;;;;;23.04;57.45;100645.41;6311528;22;20053;-72
2021/09/24 13:47:31;;;;;;;2.92;2.30;;;;;;;22.99;58.52;100645.75;6311897;22;20003;-72
2021/09/24 13:49:56;;;;;;;3.33;2.20;;;;;;;22.97;58.04;100643.28;6284272;22;20056;-72
2021/09/24 13:52:22;;;;;;;3.65;2.08;;;;;;;23.02;58.33;100639.34;6311903;22;20491;-72
2021/09/24 13:54:47;;;;;;;4.57;2.30;;;;;;;22.87;58.19;100635.34;6311971;22;20015;-72
2021/09/24 13:57:13;;;;;;;3.90;2.25;;;;;;;22.94;58.15;100630.66;6258706;22;20003;-72
2021/09/24 13:59:38;;;;;;;3.97;1.92;;;;;;;22.84;58.20;100634.09;6311564;22;20062;-72
2021/09/24 14:02:04;;;;;;;3.65;2.20;;;;;;;22.79;58.26;100631.59;6284581;22;20370;-72
2021/09/24 14:04:29;;;;;;;3.60;2.20;;;;;;;22.77;58.58;100628.31;6311580;22;20042;-72
2021/09/24 14:06:55;;;;;;;3.05;2.08;;;;;;;22.79;59.09;100627.91;6311558;22;20041;-72
2021/09/24 14:09:20;;;;;;;3.83;2.40;;;;;;;22.77;58.71;100633.16;6311485;22;20019;-72
2021/09/24 14:11:46;;;;;;;4.65;2.33;;;;;;;22.74;58.39;100624.22;6284391;22;20003;-73
2021/09/24 14:14:12;;;;;;;3.25;1.90;;;;;;;22.85;58.09;100618.75;6311402;22;20022;-72
2021/09/24 14:16:37;;;;;;;2.70;1.63;;;;;;;22.92;58.87;100621.72;6258322;22;20003;-73
2021/09/24 14:19:03;;;;;;;3.25;1.88;;;;;;;22.97;58.12;100610.13;6311454;22;20007;-72
2021/09/24 14:21:29;;;;;;;3.83;2.13;;;;;;;22.96;58.93;100614.16;6311395;22;20017;-72
2021/09/24 14:23:55;;;;;;;6.22;2.13;;;;;;;22.93;58.94;100608.41;6284242;22;20003;-72
2021/09/24 14:26:20;;;;;;;5.90;2.10;;;;;;;22.87;58.58;100607.88;6284152;22;20007;-72
2021/09/24 14:28:45;;;;;;;2.88;2.33;;;;;;;22.70;58.31;100606.31;6311332;22;20010;-72
2021/09/24 14:31:11;;;;;;;3.00;2.25;;;;;;;22.64;58.34;100615.50;6311499;22;20494;-72
2021/09/24 14:33:37;;;;;;;4.65;2.30;;;;;;;22.64;59.50;100612.66;6311818;22;20494;-73
2021/09/24 14:36:02;;;;;;;4.22;1.90;;;;;;;22.65;58.63;100600.16;6283880;22;20015;-72
2021/09/24 14:38:28;;;;;;;3.05;1.80;;;;;;;22.66;58.90;100601.81;6258303;22;20007;-72
2021/09/24 14:40:53;;;;;;;2.22;1.75;;;;;;;22.64;59.32;100592.84;6311384;22;20034;-72
2021/09/24 14:43:19;;;;;;;3.97;2.25;;;;;;;22.53;59.26;100590.63;6311524;22;20007;-72
2021/09/24 14:45:44;;;;;;;3.80;2.20;;;;;;;22.49;58.83;100595.41;6283722;22;20007;-72
2021/09/24 14:48:10;;;;;;;3.08;1.90;;;;;;;22.43;59.11;100591.25;6311177;22;20007;-72
2021/09/24 14:50:35;;;;;;;5.40;2.25;;;;;;;22.37;60.65;100591.91;6283957;22;20512;-72
2021/09/24 14:53:00;;;;;;;4.43;1.95;;;;;;;22.36;60.58;100585.44;6311389;22;20003;-73
2021/09/24 14:55:26;;;;;;;5.13;2.38;;;;;;;22.33;60.71;100597.50;6232814;22;20014;-73
2021/09/24 14:57:52;;;;;;;6.28;2.17;;;;;;;22.25;59.59;100590.03;6258274;22;20007;-73
2021/09/24 15:00:17;;;;;;;3.42;2.05;;;;;;;22.11;59.88;100589.72;6283973;22;20011;-73
2021/09/24 15:02:43;;;;;;;3.20;1.85;;;;;;;22.06;60.41;100593.63;6283934;22;20355;-73
2021/09/24 15:05:09;;;;;;;3.75;1.92;;;;;;;22.09;60.83;100590.91;6283659;22;20052;-73
2021/09/24 15:07:35;;;;;;;2.80;1.98;;;;;;;22.02;60.81;100581.44;6232516;22;20003;-74
2021/09/24 15:10:02;;;;;;;2.65;1.73;;;;;;;22.04;61.29;100579.06;6284260;22;20064;-74
2021/09/24 15:12:28;;;;;;;3.45;1.63;;;;;;;22.04;62.12;100576.25;6233719;22;20090;-74
2021/09/24 15:14:53;;;;;;;3.42;1.90;;;;;;;21.98;61.09;100581.38;6257405;22;20012;-74
2021/09/24 15:17:19;;;;;;;3.20;1.92;;;;;;;21.97;61.33;100574.06;6310895;22;20010;-75
2021/09/24 15:19:44;;;;;;;3.58;2.03;;;;;;;21.92;61.24;100582.81;6258219;22;20007;-75
2021/09/24 15:22:10;;;;;;;2.30;1.92;;;;;;;21.91;62.52;100581.19;6258189;22;20003;-74
2021/09/24 15:24:35;;;;;;;3.63;1.70;;;;;;;21.92;62.14;100573.53;6283609;22;20429;-74
2021/09/24 15:27:01;;;;;;;3.80;1.88;;;;;;;21.88;61.71;100576.28;6310640;22;20010;-77
2021/09/24 15:29:26;;;;;;;4.50;2.40;;;;;;;21.80;61.12;100580.13;6257821;22;20332;-74
2021/09/24 15:31:54;;;;;;;3.80;2.10;;;;;;;21.71;61.57;100582.34;6310918;22;20007;-74
2021/09/24 15:34:22;;;;;;;2.85;1.70;;;;;;;21.71;61.75;100583.16;6282970;22;20416;-74
2021/09/24 15:36:48;;;;;;;3.88;2.00;;;;;;;21.69;62.18;100573.41;6310960;22;20007;-74
2021/09/24 15:39:14;;;;;;;4.35;2.08;;;;;;;21.59;62.24;100581.28;6283524;22;20010;-74
2021/09/24 15:41:40;;;;;;;4.13;2.60;;;;;;;21.45;61.91;100577.28;6283675;22;20003;-74
2021/09/24 15:44:05;;;;;;;2.75;2.00;;;;;;;21.39;62.60;100565.44;6257939;22;20111;-74
2021/09/24 15:46:31;;;;;;;3.83;2.30;;;;;;;21.34;62.68;100566.53;6283678;22;20007;-74
2021/09/24 15:48:56;;;;;;;4.82;2.53;;;;;;;21.24;62.59;100577.53;6310769;22;20022;-76
2021/09/24 15:51:23;;;;;;;3.63;2.67;;;;;;;21.05;62.44;100579.09;6310516;22;20366;-77
2021/09/24 16:02:58;;;;;;;;;;;;;;;;;;;;;
2021/09/24 16:23:16;;;;;;;4.57;2.80;;;;;;;20.20;65.34;100567.03;5702788;24;20491;-79
2021/09/24 16:26:39;;;;;;;3.95;3.00;;;;;;;20.11;65.28;100571.19;5707655;25;20039;-79
2021/09/24 16:29:48;;;;;;;4.57;2.90;;;;;;;20.04;65.65;100568.97;5744122;24;20120;-79
2021/09/24 16:33:02;;;;;;;3.85;2.20;;;;;;;20.00;65.42;100560.44;5772443;24;20503;-79
2021/09/24 16:36:42;;;;;;;5.00;2.60;;;;;;;19.96;65.37;100555.84;5795698;24;20016;-79
2021/09/24 16:39:45;;;;;;;5.85;2.58;;;;;;;19.90;65.53;100549.63;5737253;24;20082;-79
2021/09/24 16:43:21;;;;;;;3.35;2.80;;;;;;;19.78;66.17;100561.75;5820280;24;20023;-79
2021/09/24 16:46:18;;;;;;;3.50;2.42;;;;;;;19.72;66.99;100560.34;5837545;24;20014;-79
2021/09/24 16:52:26;;;;;;;4.80;2.13;;;;;;;19.58;67.91;100562.69;5766192;24;20058;-74
2021/09/24 16:54:51;;;;;;;2.55;1.52;;;;;;;19.53;68.89;100565.72;5768453;24;20019;-76
2021/09/24 16:57:20;;;;;;;2.55;1.75;;;;;;;19.48;69.15;100569.63;5790329;24;20019;-78
2021/09/24 16:59:45;;;;;;;2.50;1.45;;;;;;;19.40;69.59;100568.56;5806473;24;20389;-72
2021/09/24 17:02:11;;;;;;;1.98;1.42;;;;;;;19.35;69.53;100565.97;5847574;24;20080;-72
2021/09/24 17:04:36;;;;;;;2.35;1.30;;;;;;;19.29;68.95;100564.59;5825209;24;20026;-72
2021/09/24 17:07:02;;;;;;;5.15;1.38;;;;;;;19.25;69.23;100566.47;5870248;24;20010;-71